createdAt,value
2018-02-19T00:00:39.760Z,99.90
2018-02-19T00:03:07.632Z,99.90
2018-02-19T00:05:35.597Z,99.90
2018-02-19T00:08:03.876Z,99.90
2018-02-19T00:10:32.049Z,99.90
2018-02-19T00:12:59.822Z,99.90
2018-02-19T00:15:27.785Z,99.90
2018-02-19T00:17:57.180Z,99.90
2018-02-19T00:20:25.773Z,99.90
2018-02-19T00:22:55.670Z,99.90
2018-02-19T00:25:23.317Z,99.90
2018-02-19T00:27:50.503Z,99.90
2018-02-19T00:30:17.857Z,99.90
2018-02-19T00:32:44.805Z,99.90
2018-02-19T00:35:12.571Z,99.90
2018-02-19T00:37:40.236Z,99.90
2018-02-19T00:40:08.223Z,99.90
2018-02-19T00:42:35.224Z,99.90
2018-02-19T00:45:02.402Z,99.90
2018-02-19T00:47:30.370Z,99.90
2018-02-19T00:49:58.136Z,99.90
2018-02-19T00:52:25.900Z,99.90
2018-02-19T00:54:53.666Z,99.90
2018-02-19T00:57:21.328Z,99.90
2018-02-19T00:59:48.991Z,99.90
2018-02-19T01:02:16.142Z,99.90
2018-02-19T01:04:44.112Z,99.90
2018-02-19T01:07:11.877Z,99.90
2018-02-19T01:09:40.426Z,99.90
2018-02-19T01:12:08.841Z,99.90
2018-02-19T01:14:36.504Z,99.90
2018-02-19T01:17:04.576Z,99.90
2018-02-19T01:19:39.515Z,99.90
2018-02-19T01:22:06.635Z,99.90
2018-02-19T01:24:33.812Z,99.90
2018-02-19T01:27:01.680Z,99.90
2018-02-19T01:29:29.649Z,99.90
2018-02-19T01:31:57.516Z,99.90
2018-02-19T01:34:24.520Z,99.90
2018-02-19T01:36:50.740Z,99.90
2018-02-19T01:39:17.700Z,99.90
2018-02-19T01:41:43.883Z,99.90
2018-02-19T01:44:10.094Z,99.90
2018-02-19T01:46:36.288Z,99.90
2018-02-19T01:49:02.512Z,99.90
2018-02-19T01:51:29.440Z,99.90
2018-02-19T01:53:56.913Z,99.90
2018-02-19T01:56:23.101Z,99.90
2018-02-19T01:58:49.308Z,99.90
2018-02-19T02:01:15.505Z,99.90
2018-02-19T02:03:41.740Z,99.90
2018-02-19T02:06:07.956Z,99.90
2018-02-19T02:08:34.460Z,99.90
2018-02-19T02:11:00.673Z,99.90
2018-02-19T02:13:26.868Z,99.90
2018-02-19T02:15:53.080Z,99.90
2018-02-19T02:18:19.264Z,99.90
2018-02-19T02:20:47.126Z,99.90
2018-02-19T02:23:13.755Z,99.90
2018-02-19T02:25:40.009Z,99.90
2018-02-19T02:28:06.200Z,99.90
2018-02-19T02:30:32.402Z,99.90
2018-02-19T02:32:58.634Z,99.90
2018-02-19T02:35:25.414Z,99.90
2018-02-19T02:37:51.663Z,99.90
2018-02-19T02:40:18.280Z,99.90
2018-02-19T02:42:44.512Z,99.90
2018-02-19T02:45:10.696Z,99.90
2018-02-19T02:47:36.908Z,99.90
2018-02-19T02:50:03.897Z,99.90
2018-02-19T02:52:30.089Z,99.90
2018-02-19T02:54:57.324Z,99.90
2018-02-19T02:57:24.269Z,99.90
2018-02-19T02:59:51.225Z,99.90
2018-02-19T03:02:18.158Z,99.90
2018-02-19T03:04:44.364Z,99.90
2018-02-19T03:07:10.694Z,99.90
2018-02-19T03:09:37.684Z,99.90
2018-02-19T03:12:04.620Z,99.90
2018-02-19T03:14:31.595Z,99.90
2018-02-19T03:16:57.788Z,99.90
2018-02-19T03:19:24.729Z,99.90
2018-02-19T03:21:50.944Z,99.90
2018-02-19T03:24:17.146Z,99.90
2018-02-19T03:26:43.356Z,99.90
2018-02-19T03:29:09.543Z,99.90
2018-02-19T03:31:35.756Z,99.90
2018-02-19T03:34:01.961Z,99.90
2018-02-19T03:36:28.149Z,99.90
2018-02-19T03:38:55.105Z,99.90
2018-02-19T03:41:21.312Z,99.90
2018-02-19T03:43:48.269Z,99.90
2018-02-19T03:46:15.201Z,99.90
2018-02-19T03:48:42.156Z,99.90
2018-02-19T03:51:09.099Z,99.90
2018-02-19T03:53:36.054Z,99.90
2018-02-19T03:56:03.498Z,99.90
2018-02-19T03:58:30.520Z,99.90
2018-02-19T04:00:56.707Z,99.90
2018-02-19T04:03:22.888Z,99.90
2018-02-19T04:05:49.124Z,99.90
2018-02-19T04:08:15.319Z,99.90
2018-02-19T04:10:41.531Z,99.90
2018-02-19T04:13:07.724Z,99.90
2018-02-19T04:15:34.680Z,99.90
2018-02-19T04:18:00.872Z,99.90
2018-02-19T04:20:27.061Z,99.90
2018-02-19T04:22:53.273Z,99.90
2018-02-19T04:25:19.481Z,99.90
2018-02-19T04:27:46.428Z,99.90
2018-02-19T04:30:13.370Z,99.90
2018-02-19T04:32:40.353Z,99.90
2018-02-19T04:35:06.549Z,99.90
2018-02-19T04:37:33.477Z,99.90
2018-02-19T04:40:01.173Z,99.90
2018-02-19T04:42:27.370Z,99.90
2018-02-19T04:44:56.168Z,99.90
2018-02-19T04:47:23.099Z,99.90
2018-02-19T04:49:49.336Z,99.90
2018-02-19T04:52:15.564Z,99.90
2018-02-19T04:54:41.785Z,99.90
2018-02-19T04:57:08.009Z,99.90
2018-02-19T04:59:35.061Z,99.90
2018-02-19T05:02:01.561Z,99.90
2018-02-19T05:04:27.743Z,99.90
2018-02-19T05:06:53.943Z,99.90
2018-02-19T05:09:20.128Z,99.90
2018-02-19T05:11:46.337Z,99.90
2018-02-19T05:14:13.273Z,99.90
2018-02-19T05:16:40.280Z,99.90
2018-02-19T05:19:06.468Z,99.90
2018-02-19T05:21:32.685Z,99.90
2018-02-19T05:23:59.620Z,99.90
2018-02-19T05:26:25.900Z,99.90
2018-02-19T05:28:52.135Z,99.90
2018-02-19T05:31:18.564Z,99.90
2018-02-19T05:33:44.768Z,99.90
2018-02-19T05:36:10.948Z,99.90
2018-02-19T05:38:37.387Z,99.90
2018-02-19T05:41:05.073Z,99.90
2018-02-19T05:43:32.031Z,99.90
2018-02-19T05:45:58.977Z,99.90
2018-02-19T05:48:25.933Z,99.90
2018-02-19T05:50:52.148Z,99.90
2018-02-19T05:53:19.104Z,99.90
2018-02-19T05:55:45.292Z,99.90
2018-02-19T05:58:11.485Z,99.90
2018-02-19T06:00:37.776Z,99.90
2018-02-19T06:03:04.708Z,99.90
2018-02-19T06:05:30.917Z,99.90
2018-02-19T06:07:57.101Z,99.90
2018-02-19T06:10:23.308Z,99.90
2018-02-19T06:12:50.243Z,99.90
2018-02-19T06:15:17.204Z,99.90
2018-02-19T06:17:44.131Z,99.90
2018-02-19T06:20:11.984Z,99.90
2018-02-19T06:22:38.188Z,99.90
2018-02-19T06:25:04.385Z,99.90
2018-02-19T06:27:30.600Z,99.90
2018-02-19T06:29:57.524Z,99.90
2018-02-19T06:32:23.725Z,99.90
2018-02-19T06:34:49.919Z,99.90
2018-02-19T06:37:16.140Z,99.90
2018-02-19T06:39:43.102Z,99.90
2018-02-19T06:42:09.284Z,99.90
2018-02-19T06:44:35.500Z,99.90
2018-02-19T06:47:01.688Z,99.90
2018-02-19T06:49:27.937Z,99.90
2018-02-19T06:51:54.124Z,99.90
2018-02-19T06:54:20.598Z,99.90
2018-02-19T06:56:46.772Z,99.90
2018-02-19T06:59:12.960Z,99.90
2018-02-19T07:01:39.205Z,99.90
2018-02-19T07:04:05.397Z,99.90
2018-02-19T07:06:31.664Z,99.90
2018-02-19T07:08:57.861Z,99.90
2018-02-19T07:11:24.084Z,99.90
2018-02-19T07:13:50.275Z,99.90
2018-02-19T07:16:16.488Z,99.90
2018-02-19T07:18:42.680Z,99.90
2018-02-19T07:21:08.941Z,99.90
2018-02-19T07:23:35.133Z,99.90
2018-02-19T07:26:01.324Z,99.90
2018-02-19T07:28:28.284Z,99.90
2018-02-19T07:30:55.272Z,99.90
2018-02-19T07:33:21.461Z,99.90
2018-02-19T07:35:48.401Z,99.90
2018-02-19T07:38:15.367Z,99.90
2018-02-19T07:40:41.583Z,99.90
2018-02-19T07:43:07.809Z,99.90
2018-02-19T07:45:36.997Z,99.90
2018-02-19T07:48:03.279Z,99.90
2018-02-19T07:50:29.464Z,99.90
2018-02-19T07:52:56.428Z,99.90
2018-02-19T07:55:22.624Z,99.90
2018-02-19T07:57:49.580Z,99.90
2018-02-19T08:00:16.508Z,99.90
2018-02-19T08:02:42.724Z,99.90
2018-02-19T08:05:08.941Z,99.90
2018-02-19T08:07:35.183Z,99.90
2018-02-19T08:10:01.375Z,99.90
2018-02-19T08:12:27.593Z,99.90
2018-02-19T08:14:53.800Z,99.90
2018-02-19T08:17:21.016Z,99.90
2018-02-19T08:19:47.208Z,99.90
2018-02-19T08:22:13.396Z,99.90
2018-02-19T08:24:40.415Z,99.90
2018-02-19T08:27:06.590Z,99.90
2018-02-19T08:29:32.820Z,99.90
2018-02-19T08:31:59.743Z,99.90
2018-02-19T08:34:25.966Z,99.90
2018-02-19T08:36:52.147Z,99.90
2018-02-19T08:39:18.369Z,99.90
2018-02-19T08:41:44.556Z,99.90
2018-02-19T08:44:10.775Z,99.90
2018-02-19T08:46:36.964Z,99.90
2018-02-19T08:49:03.220Z,99.90
2018-02-19T08:51:29.472Z,99.90
2018-02-19T08:53:56.440Z,99.90
2018-02-19T08:56:23.367Z,99.90
2018-02-19T08:58:49.648Z,99.90
2018-02-19T09:01:15.841Z,99.90
2018-02-19T09:03:42.902Z,99.90
2018-02-19T09:06:09.096Z,99.90
2018-02-19T09:08:36.052Z,99.90
2018-02-19T09:11:03.044Z,99.90
2018-02-19T09:13:29.270Z,99.90
2018-02-19T09:15:55.460Z,99.90
2018-02-19T09:18:22.427Z,99.90
2018-02-19T09:20:48.616Z,99.90
2018-02-19T09:23:14.832Z,99.90
2018-02-19T09:25:41.023Z,99.90
2018-02-19T09:28:07.389Z,99.90
2018-02-19T09:30:33.588Z,99.90
2018-02-19T09:32:59.787Z,99.90
2018-02-19T09:35:26.751Z,99.90
2018-02-19T09:37:52.960Z,99.90
2018-02-19T09:40:19.921Z,99.90
2018-02-19T09:42:46.116Z,99.90
2018-02-19T09:45:13.081Z,99.90
2018-02-19T09:47:40.008Z,99.90
2018-02-19T09:50:06.224Z,99.90
2018-02-19T09:52:32.403Z,99.90
2018-02-19T09:54:58.629Z,99.90
2018-02-19T09:57:24.818Z,99.90
2018-02-19T09:59:51.041Z,99.90
2018-02-19T10:02:17.257Z,99.90
2018-02-19T10:04:43.501Z,99.90
2018-02-19T10:07:09.683Z,99.90
2018-02-19T10:09:35.904Z,99.90
2018-02-19T10:12:02.135Z,99.90
2018-02-19T10:14:28.383Z,99.90
2018-02-19T10:17:01.649Z,99.90
2018-02-19T10:19:28.636Z,99.90
2018-02-19T10:21:54.832Z,99.90
2018-02-19T10:24:21.041Z,99.90
2018-02-19T10:26:48.004Z,99.90
2018-02-19T10:29:14.199Z,99.90
2018-02-19T10:31:40.429Z,99.90
2018-02-19T10:34:06.633Z,99.90
2018-02-19T10:36:32.848Z,99.90
2018-02-19T10:38:59.048Z,99.90
2018-02-19T10:41:25.264Z,99.90
2018-02-19T10:43:52.191Z,99.90
2018-02-19T10:46:18.408Z,99.90
2018-02-19T10:48:46.085Z,99.90
2018-02-19T10:51:12.309Z,99.90
2018-02-19T10:53:40.024Z,99.90
2018-02-19T10:56:06.232Z,99.90
2018-02-19T10:58:32.428Z,99.90
2018-02-19T11:00:58.668Z,99.90
2018-02-19T11:03:25.605Z,99.90
2018-02-19T11:05:51.861Z,99.90
2018-02-19T11:08:18.796Z,99.90
2018-02-19T11:10:45.761Z,99.90
2018-02-19T11:13:11.952Z,99.90
2018-02-19T11:15:38.172Z,99.90
2018-02-19T11:18:04.355Z,99.90
2018-02-19T11:20:30.564Z,99.90
2018-02-19T11:22:57.492Z,99.90
2018-02-19T11:25:23.709Z,99.90
2018-02-19T11:27:49.896Z,99.90
2018-02-19T11:30:16.113Z,99.90
2018-02-19T11:32:42.292Z,99.90
2018-02-19T11:35:08.545Z,99.90
2018-02-19T11:37:35.472Z,99.90
2018-02-19T11:40:01.665Z,99.90
2018-02-19T11:42:28.504Z,99.90
2018-02-19T11:44:54.688Z,99.90
2018-02-19T11:47:21.645Z,99.90
2018-02-19T11:49:48.573Z,99.90
2018-02-19T11:52:15.207Z,99.90
2018-02-19T11:54:42.897Z,99.90
2018-02-19T11:57:09.124Z,99.90
2018-02-19T11:59:36.122Z,99.90
2018-02-19T12:02:02.357Z,99.90
2018-02-19T12:04:28.592Z,99.90
2018-02-19T12:06:54.838Z,99.90
2018-02-19T12:09:21.024Z,99.90
2018-02-19T12:11:47.208Z,99.90
2018-02-19T12:14:14.173Z,99.90
2018-02-19T12:16:40.381Z,99.90
2018-02-19T12:19:07.341Z,99.90
2018-02-19T12:21:33.532Z,99.90
2018-02-19T12:23:59.749Z,99.90
2018-02-19T12:26:25.941Z,99.90
2018-02-19T12:28:52.153Z,99.90
2018-02-19T12:31:18.356Z,99.90
2018-02-19T12:33:44.572Z,99.90
2018-02-19T12:36:10.769Z,99.90
2018-02-19T12:38:36.988Z,99.90
2018-02-19T12:41:03.808Z,99.90
2018-02-19T12:43:30.764Z,99.90
2018-02-19T12:45:56.963Z,99.90
2018-02-19T12:48:23.181Z,99.90
2018-02-19T12:50:49.369Z,99.90
2018-02-19T12:53:15.588Z,99.90
2018-02-19T12:55:41.828Z,99.90
2018-02-19T12:58:08.008Z,99.90
2018-02-19T13:00:34.229Z,99.90
2018-02-19T13:03:00.440Z,99.90
2018-02-19T13:05:26.702Z,99.90
2018-02-19T13:07:53.639Z,99.90
2018-02-19T13:10:19.868Z,99.90
2018-02-19T13:12:46.805Z,99.90
2018-02-19T13:15:13.028Z,99.90
2018-02-19T13:17:39.224Z,99.90
2018-02-19T13:20:05.441Z,99.90
2018-02-19T13:22:31.638Z,99.90
2018-02-19T13:24:58.679Z,99.90
2018-02-19T13:27:24.864Z,99.90
2018-02-19T13:29:51.079Z,99.90
2018-02-19T13:32:17.272Z,99.90
2018-02-19T13:34:44.232Z,99.90
2018-02-19T13:37:10.424Z,99.90
2018-02-19T13:39:36.648Z,99.90
2018-02-19T13:42:02.833Z,99.90
2018-02-19T13:44:29.065Z,99.90
2018-02-19T13:46:55.281Z,99.90
2018-02-19T13:49:21.504Z,99.90
2018-02-19T13:51:47.701Z,99.90
2018-02-19T13:54:13.937Z,99.90
2018-02-19T13:56:40.126Z,99.90
2018-02-19T13:59:06.353Z,99.90
2018-02-19T14:01:32.568Z,97.20
2018-02-19T14:03:58.776Z,78.50
2018-02-19T14:06:25.820Z,63.20
2018-02-19T14:08:52.831Z,69.60
2018-02-19T14:11:19.795Z,58.60
2018-02-19T14:13:45.981Z,58.50
2018-02-19T14:16:12.200Z,60.50
2018-02-19T14:18:38.412Z,54.70
2018-02-19T14:21:04.628Z,56.60
2018-02-19T14:23:31.560Z,68.70
2018-02-19T14:25:59.064Z,90.30
2018-02-19T14:28:25.278Z,90.30
2018-02-19T14:30:51.468Z,95.00
2018-02-19T14:33:17.685Z,96.70
2018-02-19T14:35:43.868Z,99.90
2018-02-19T14:38:10.120Z,99.40
2018-02-19T14:40:36.313Z,96.40
2018-02-19T14:43:02.546Z,98.20
2018-02-19T14:45:28.732Z,99.10
2018-02-19T14:47:54.949Z,99.90
2018-02-19T14:50:21.153Z,99.90
2018-02-19T14:52:47.368Z,99.90
2018-02-19T14:55:13.557Z,99.90
2018-02-19T14:57:39.812Z,99.90
2018-02-19T15:00:06.025Z,99.90
2018-02-19T15:02:32.959Z,99.90
2018-02-19T15:04:59.216Z,99.90
2018-02-19T15:07:25.412Z,99.90
2018-02-19T15:09:51.645Z,99.90
2018-02-19T15:12:17.828Z,99.90
2018-02-19T15:14:44.045Z,99.90
2018-02-19T15:17:10.242Z,99.90
2018-02-19T15:19:37.200Z,99.90
2018-02-19T15:22:04.141Z,99.90
2018-02-19T15:24:31.108Z,99.90
2018-02-19T15:26:57.300Z,99.90
2018-02-19T15:29:23.530Z,99.90
2018-02-19T15:31:49.735Z,99.90
2018-02-19T15:34:15.928Z,99.90
2018-02-19T15:36:42.145Z,99.90
2018-02-19T15:39:08.353Z,99.90
2018-02-19T15:41:35.333Z,99.90
2018-02-19T15:44:01.524Z,99.90
2018-02-19T15:46:28.480Z,99.90
2018-02-19T15:48:55.433Z,99.90
2018-02-19T15:51:22.400Z,99.90
2018-02-19T15:53:48.597Z,99.90
2018-02-19T15:56:15.561Z,99.90
2018-02-19T15:58:41.750Z,99.90
2018-02-19T16:01:07.976Z,99.90
2018-02-19T16:03:34.913Z,99.90
2018-02-19T16:06:01.164Z,99.90
2018-02-19T16:08:27.352Z,99.90
2018-02-19T16:10:53.564Z,99.90
2018-02-19T16:13:19.755Z,99.90
2018-02-19T16:15:46.004Z,99.90
2018-02-19T16:18:12.927Z,99.90
2018-02-19T16:20:39.153Z,99.90
2018-02-19T16:23:05.625Z,99.90
2018-02-19T16:25:31.844Z,99.90
2018-02-19T16:27:58.045Z,99.90
2018-02-19T16:30:25.013Z,99.90
2018-02-19T16:32:51.940Z,99.90
2018-02-19T16:35:18.174Z,99.90
2018-02-19T16:37:45.106Z,99.90
2018-02-19T16:40:11.319Z,99.90
2018-02-19T16:42:37.504Z,99.90
2018-02-19T16:45:03.757Z,99.90
2018-02-19T16:47:29.943Z,99.90
2018-02-19T16:49:56.876Z,99.90
2018-02-19T16:52:23.087Z,99.90
2018-02-19T16:54:49.305Z,99.90
2018-02-19T16:57:15.503Z,99.90
2018-02-19T16:59:42.352Z,99.90
2018-02-19T17:02:08.548Z,99.90
2018-02-19T17:04:35.476Z,99.90
2018-02-19T17:07:01.733Z,99.90
2018-02-19T17:09:27.960Z,99.90
2018-02-19T17:11:54.181Z,99.90
2018-02-19T17:14:21.108Z,99.90
2018-02-19T17:16:47.324Z,99.90
2018-02-19T17:19:13.520Z,99.90
2018-02-19T17:21:39.769Z,99.90
2018-02-19T17:24:05.963Z,99.90
2018-02-19T17:26:32.180Z,99.90
2018-02-19T17:28:58.374Z,99.90
2018-02-19T17:31:24.601Z,99.90
2018-02-19T17:33:50.795Z,99.90
2018-02-19T17:36:17.037Z,99.90
2018-02-19T17:38:43.220Z,99.90
2018-02-19T17:41:10.180Z,99.90
2018-02-19T17:43:36.377Z,99.90
2018-02-19T17:46:03.356Z,99.90
2018-02-19T17:48:29.544Z,99.90
2018-02-19T17:50:55.765Z,99.90
2018-02-19T17:53:22.705Z,99.90
2018-02-19T17:55:48.921Z,99.90
2018-02-19T17:58:15.104Z,99.90
2018-02-19T18:00:41.352Z,99.90
2018-02-19T18:03:07.540Z,99.90
2018-02-19T18:05:34.504Z,99.90
2018-02-19T18:08:01.469Z,99.90
2018-02-19T18:10:27.701Z,99.90
2018-02-19T18:12:53.887Z,99.90
2018-02-19T18:15:20.110Z,99.90
2018-02-19T18:17:46.296Z,99.90
2018-02-19T18:20:12.516Z,99.90
2018-02-19T18:22:38.708Z,99.90
2018-02-19T18:25:05.669Z,99.90
2018-02-19T18:27:32.952Z,99.90
2018-02-19T18:29:59.194Z,99.90
2018-02-19T18:32:25.384Z,99.90
2018-02-19T18:34:52.317Z,99.90
2018-02-19T18:37:19.284Z,99.90
2018-02-19T18:39:45.472Z,99.90
2018-02-19T18:42:11.691Z,99.90
2018-02-19T18:44:37.882Z,99.90
2018-02-19T18:47:04.100Z,99.90
2018-02-19T18:49:30.285Z,99.90
2018-02-19T18:51:56.499Z,99.90
2018-02-19T18:54:22.688Z,99.90
2018-02-19T18:56:48.897Z,99.90
2018-02-19T18:59:15.834Z,99.90
2018-02-19T19:01:42.805Z,99.90
2018-02-19T19:04:09.028Z,99.90
2018-02-19T19:06:35.251Z,99.90
2018-02-19T19:09:13.948Z,99.90
2018-02-19T19:11:40.132Z,99.90
2018-02-19T19:14:06.349Z,99.90
2018-02-19T19:16:32.529Z,99.90
2018-02-19T19:19:00.240Z,99.90
2018-02-19T19:21:26.434Z,99.90
2018-02-19T19:23:53.392Z,99.90
2018-02-19T19:26:20.324Z,99.90
2018-02-19T19:28:47.314Z,99.90
2018-02-19T19:31:13.501Z,99.90
2018-02-19T19:33:40.460Z,99.90
2018-02-19T19:36:07.392Z,99.90
2018-02-19T19:38:34.356Z,99.90
2018-02-19T19:41:01.288Z,99.90
2018-02-19T19:43:28.258Z,99.90
2018-02-19T19:45:54.461Z,99.90
2018-02-19T19:48:21.420Z,99.90
2018-02-19T19:50:48.367Z,99.90
2018-02-19T19:53:15.320Z,99.90
2018-02-19T19:55:41.513Z,99.90
2018-02-19T19:58:07.731Z,99.90
2018-02-19T20:00:33.916Z,99.90
2018-02-19T20:03:00.144Z,99.90
2018-02-19T20:05:26.364Z,99.90
2018-02-19T20:07:53.019Z,99.90
2018-02-19T20:10:19.192Z,99.90
2018-02-19T20:12:45.408Z,99.90
2018-02-19T20:15:11.596Z,99.90
2018-02-19T20:17:37.812Z,99.90
2018-02-19T20:20:04.810Z,99.90
2018-02-19T20:22:31.047Z,99.90
2018-02-19T20:24:57.296Z,99.90
2018-02-19T20:27:23.521Z,99.90
2018-02-19T20:29:49.716Z,99.90
2018-02-19T20:32:15.935Z,99.90
2018-02-19T20:34:42.168Z,99.90
2018-02-19T20:37:08.380Z,99.90
2018-02-19T20:39:34.573Z,99.90
2018-02-19T20:42:01.532Z,99.90
2018-02-19T20:44:28.461Z,99.90
2018-02-19T20:46:54.696Z,99.90
2018-02-19T20:49:21.622Z,99.90
2018-02-19T20:51:47.849Z,99.90
2018-02-19T20:54:14.036Z,99.90
2018-02-19T20:56:40.216Z,99.90
2018-02-19T20:59:06.436Z,99.90
2018-02-19T21:01:32.627Z,99.90
2018-02-19T21:03:58.872Z,99.90
2018-02-19T21:06:25.124Z,99.90
2018-02-19T21:08:51.349Z,99.90
2018-02-19T21:11:17.536Z,99.90
2018-02-19T21:13:43.752Z,99.90
2018-02-19T21:16:09.944Z,99.90
2018-02-19T21:18:36.166Z,99.90
2018-02-19T21:21:02.424Z,99.90
2018-02-19T21:23:29.387Z,99.90
2018-02-19T21:25:55.572Z,99.90
2018-02-19T21:28:21.805Z,99.90
2018-02-19T21:30:47.992Z,99.90
2018-02-19T21:33:14.212Z,99.90
2018-02-19T21:35:40.404Z,99.90
2018-02-19T21:38:07.356Z,99.90
2018-02-19T21:40:34.544Z,99.90
2018-02-19T21:43:00.760Z,99.90
2018-02-19T21:45:27.028Z,99.90
2018-02-19T21:47:53.249Z,99.90
2018-02-19T21:50:19.444Z,99.90
2018-02-19T21:52:45.663Z,99.90
2018-02-19T21:55:12.593Z,99.90
2018-02-19T21:57:39.556Z,99.90
2018-02-19T22:00:06.489Z,99.90
2018-02-19T22:02:33.444Z,99.90
2018-02-19T22:05:00.372Z,99.90
2018-02-19T22:07:27.356Z,99.90
2018-02-19T22:09:53.539Z,99.90
2018-02-19T22:12:19.761Z,99.90
2018-02-19T22:14:45.948Z,99.90
2018-02-19T22:17:12.200Z,99.90
2018-02-19T22:19:38.392Z,99.90
2018-02-19T22:22:04.615Z,99.90
2018-02-19T22:24:30.873Z,99.90
2018-02-19T22:26:57.319Z,99.90
2018-02-19T22:29:24.253Z,99.90
2018-02-19T22:31:50.444Z,99.90
2018-02-19T22:34:17.404Z,99.90
2018-02-19T22:36:43.593Z,99.90
2018-02-19T22:39:09.815Z,99.90
2018-02-19T22:41:36.004Z,99.90
2018-02-19T22:44:02.233Z,99.90
2018-02-19T22:46:28.430Z,99.90
2018-02-19T22:48:55.385Z,99.90
2018-02-19T22:51:22.375Z,99.90
2018-02-19T22:53:48.656Z,99.90
2018-02-19T22:56:15.636Z,99.90
2018-02-19T22:58:41.852Z,99.90
2018-02-19T23:01:08.096Z,99.90
2018-02-19T23:03:34.628Z,99.90
2018-02-19T23:06:00.821Z,99.90
2018-02-19T23:08:27.788Z,99.90
2018-02-19T23:10:53.976Z,99.90
2018-02-19T23:13:20.206Z,99.90
2018-02-19T23:15:46.397Z,99.90
2018-02-19T23:18:12.656Z,99.90
2018-02-19T23:20:38.852Z,99.90
2018-02-19T23:23:05.081Z,99.90
2018-02-19T23:25:31.273Z,99.90
2018-02-19T23:27:58.236Z,99.90
2018-02-19T23:30:24.428Z,99.90
2018-02-19T23:32:50.652Z,99.90
2018-02-19T23:35:16.840Z,99.90
2018-02-19T23:37:43.037Z,99.90
2018-02-19T23:40:09.333Z,99.90
2018-02-19T23:42:35.529Z,99.90
2018-02-19T23:45:01.744Z,99.90
2018-02-19T23:47:27.929Z,99.90
2018-02-19T23:49:54.156Z,99.90
2018-02-19T23:52:20.348Z,99.90
2018-02-19T23:54:46.572Z,99.90
2018-02-19T23:57:12.762Z,99.90
2018-02-19T23:59:39.733Z,99.90
